Terminal Aerodrome Forecast
Issued by NWS Cleveland, OH

Home | Current Version | Previous Version | Graphics & Text | Print | Product List | Glossary On
Versions: 1 2 3 4 5 6 7 8 9 10 11 12 13 14 15 16 17 18 19 20 21 22
000
FTUS41 KCLE 280529
TAFMFD
TAF
KMFD 280529Z 2806/2906 26004KT P6SM SCT050 BKN090
      TEMPO 2806/2809 5SM BR
     FM280900 32003KT 5SM BR BKN200
     FM281400 04067KT P6SM FEW030
     FM281700 06007KT P6SM SCT040
     FM290000 07005KT P6SM SKC=

USA.gov is the U.S. government's official web portal to all federal, state and local government web resources and services.